Time;durP1;ratioP1;P1;durP2;ratioP2;P2;SDS_P1;SDS_P2;PMS_P1;PMS_P2;Temp;Humidity;BMP_temperature;BMP_pressure;BME280_temperature;BME280_humidity;BME280_pressure;Samples;Min_cycle;Max_cycle;Signal;HPM_P1;HPM_P2
2021/04/12 00:01:18;;;;;;;;;32.33;28.00;;;;;8.80;74.76;99959.66;3612729;39;10873;-59
2021/04/12 00:04:03;;;;;;;;;37.33;31.33;;;;;8.87;74.87;99961.06;3608570;39;9839;-58
2021/04/12 00:06:44;;;;;;;;;32.00;29.33;;;;;8.76;74.39;99956.25;3606775;39;10152;-59
2021/04/12 00:09:27;;;;;;;;;32.33;32.00;;;;;8.93;73.16;99955.44;3612511;39;9788;-59
2021/04/12 00:12:16;;;;;;;;;29.67;28.00;;;;;8.88;73.72;99962.81;3616560;39;10057;-58
2021/04/12 00:14:50;;;;;;;;;34.00;28.00;;;;;8.97;72.65;99958.81;3611071;39;9868;-61
2021/04/12 00:17:45;;;;;;;;;24.33;24.00;;;;;9.01;75.01;99958.59;3610483;39;10551;-58
2021/04/12 00:20:44;;;;;;;;;34.33;28.67;;;;;9.14;73.83;99958.81;3608210;39;9763;-58
2021/04/12 00:23:20;;;;;;;;;42.00;31.33;;;;;9.01;73.84;99952.38;3610194;39;9879;-59
2021/04/12 00:26:01;;;;;;;;;35.67;28.33;;;;;9.10;74.37;99959.06;3616912;39;9959;-58
2021/04/12 00:28:44;;;;;;;;;26.33;26.33;;;;;9.05;73.50;99953.91;3618050;39;9762;-59
2021/04/12 00:31:43;;;;;;;;;33.00;27.33;;;;;9.07;73.17;99949.38;3608464;39;9822;-58
2021/04/12 00:34:28;;;;;;;;;32.00;26.33;;;;;9.02;74.33;99944.22;3618369;39;10023;-58
2021/04/12 00:37:05;;;;;;;;;29.00;26.33;;;;;9.08;73.11;99942.19;3607934;39;9856;-59
2021/04/12 00:39:42;;;;;;;;;29.33;25.00;;;;;9.13;72.22;99937.47;3615320;39;10292;-58
2021/04/12 00:43:13;;;;;;;;;35.00;26.33;;;;;9.11;72.71;99937.56;3614382;39;10231;-59
2021/04/12 00:46:00;;;;;;;;;25.00;23.00;;;;;9.34;69.53;99928.31;3616099;39;9700;-59
2021/04/12 00:48:45;;;;;;;;;27.00;23.33;;;;;9.33;70.00;99923.91;3607960;39;9997;-59
2021/04/12 00:52:07;;;;;;;;;24.33;23.00;;;;;9.16;70.52;99918.53;3617398;39;9873;-58
2021/04/12 00:55:47;;;;;;;;;28.00;22.33;;;;;8.92;71.24;99916.19;3608954;39;9725;-59
2021/04/12 00:58:32;;;;;;;;;25.00;21.67;;;;;8.84;72.41;99910.34;3574638;39;9987;-58
2021/04/12 01:01:13;;;;;;;;;26.67;24.33;;;;;8.60;73.52;99911.59;3617431;39;9833;-58
2021/04/12 01:04:34;;;;;;;;;22.00;14.67;;;;;8.34;76.81;99908.38;3617107;39;9767;-58
2021/04/12 01:07:23;;;;;;;;;38.33;31.67;;;;;8.17;77.79;99906.53;3579411;40;10071;-59
2021/04/12 01:10:48;;;;;;;;;46.67;41.33;;;;;8.20;77.72;99916.19;3614165;39;9955;-58
2021/04/12 01:13:26;;;;;;;;;52.00;41.00;;;;;8.16;78.38;99909.25;3576450;40;10233;-58
2021/04/12 01:17:06;;;;;;;;;48.00;38.33;;;;;8.28;78.48;99908.66;3585383;40;10063;-58
2021/04/12 01:20:07;;;;;;;;;43.67;38.00;;;;;8.19;79.54;99909.09;3592232;39;10089;-59
2021/04/12 01:23:17;;;;;;;;;36.33;30.33;;;;;8.54;77.20;99905.63;3605556;39;10031;-59
2021/04/12 01:26:08;;;;;;;;;72.75;55.00;;;;;8.82;74.93;99904.25;3617464;39;11165;-59
2021/04/12 01:29:11;;;;;;;;;45.33;37.67;;;;;8.94;72.73;99903.59;3611328;39;10491;-59
2021/04/12 01:32:09;;;;;;;;;28.67;19.00;;;;;9.20;69.56;99890.66;3610162;39;9829;-59
2021/04/12 01:35:29;;;;;;;;;23.33;17.33;;;;;9.41;68.67;99892.19;3613826;39;9625;-58
2021/04/12 01:38:13;;;;;;;;;17.00;14.00;;;;;9.43;67.70;99886.78;3617656;39;9743;-59
2021/04/12 01:40:58;;;;;;;;;19.67;17.33;;;;;9.55;67.77;99885.22;3610607;39;9701;-59
2021/04/12 01:43:50;;;;;;;;;24.67;16.00;;;;;9.64;66.64;99892.78;3616970;39;9820;-59
2021/04/12 01:46:36;;;;;;;;;14.00;12.00;;;;;9.64;66.00;99882.94;3606229;39;9731;-59
2021/04/12 01:49:32;;;;;;;;;20.67;16.00;;;;;9.64;66.50;99893.66;3602502;39;10263;-59
2021/04/12 01:52:14;;;;;;;;;15.00;11.33;;;;;9.67;65.25;99889.94;3616326;39;9608;-59
2021/04/12 01:55:11;;;;;;;;;15.67;11.33;;;;;9.60;66.82;99885.84;3617615;39;9751;-59
2021/04/12 01:58:14;;;;;;;;;25.00;16.33;;;;;9.62;65.58;99889.31;3617438;39;9852;-59
2021/04/12 02:01:15;;;;;;;;;15.67;12.00;;;;;9.59;66.08;99886.81;3616192;39;9781;-59
2021/04/12 02:04:05;;;;;;;;;18.00;16.00;;;;;9.55;66.38;99883.41;3604799;39;9612;-59
2021/04/12 02:07:16;;;;;;;;;21.00;15.00;;;;;9.64;66.40;99879.38;3601455;39;9603;-59
2021/04/12 02:09:56;;;;;;;;;12.00;12.00;;;;;9.61;66.65;99879.53;3615843;39;9985;-59
2021/04/12 02:12:56;;;;;;;;;26.00;19.00;;;;;9.22;70.11;99870.03;3607917;39;9739;-59
2021/04/12 02:15:46;;;;;;;;;26.00;25.00;;;;;8.57;73.84;99870.66;3614367;39;9928;-59
2021/04/12 02:18:47;;;;;;;;;28.33;23.00;;;;;8.54;74.25;99868.16;3625485;39;9869;-59
2021/04/12 02:22:02;;;;;;;;;25.00;21.00;;;;;8.68;74.47;99869.25;3611025;39;9902;-59
2021/04/12 02:24:55;;;;;;;;;39.00;28.00;;;;;8.55;74.07;99861.84;3606856;39;9890;-59
2021/04/12 02:27:45;;;;;;;;;43.00;38.00;;;;;8.49;74.36;99864.84;3612554;39;9855;-58
2021/04/12 02:30:37;;;;;;;;;39.00;33.33;;;;;8.55;75.51;99874.34;3616678;39;9834;-59
2021/04/12 02:33:41;;;;;;;;;42.67;37.00;;;;;8.61;74.71;99860.69;3613229;39;10098;-59
2021/04/12 02:37:08;;;;;;;;;102.00;91.25;;;;;8.53;75.01;99858.41;3612848;39;9426;-59
2021/04/12 02:40:09;;;;;;;;;427.40;398.40;;;;;8.71;74.90;99864.59;3606556;39;10275;-59
2021/04/12 02:43:37;;;;;;;;;69.25;55.50;;;;;8.74;73.65;99858.22;3616675;39;9245;-59
2021/04/12 02:46:22;;;;;;;;;22.33;22.33;;;;;8.72;72.44;99852.09;3602207;39;10040;-59
2021/04/12 02:49:07;;;;;;;;;24.67;22.33;;;;;8.85;72.67;99860.38;3620651;39;9859;-59
2021/04/12 02:51:53;;;;;;;;;31.00;28.00;;;;;8.82;72.58;99871.22;3608167;39;9822;-59
2021/04/12 02:54:40;;;;;;;;;30.00;23.33;;;;;8.55;72.61;99864.50;3607001;39;9830;-59
2021/04/12 02:57:25;;;;;;;;;25.33;20.00;;;;;8.41;73.98;99850.13;3597949;39;9916;-59
2021/04/12 03:00:07;;;;;;;;;32.00;23.33;;;;;8.43;74.08;99853.59;3608230;39;9897;-60
2021/04/12 03:03:01;;;;;;;;;30.00;21.33;;;;;8.26;74.15;99857.91;3602827;39;9772;-58
2021/04/12 03:06:10;;;;;;;;;30.33;27.00;;;;;8.22;74.15;99855.47;3608513;39;9800;-59
2021/04/12 03:09:04;;;;;;;;;33.33;27.67;;;;;8.07;74.63;99852.59;3609367;39;9800;-59
2021/04/12 03:11:31;;;;;;;;;37.67;32.33;;;;;8.07;75.06;99849.06;3609235;39;9819;-59
2021/04/12 03:14:52;;;;;;;;;41.67;26.67;;;;;8.12;75.06;99847.03;3609326;39;9916;-58
2021/04/12 03:17:57;;;;;;;;;31.67;29.33;;;;;8.32;74.42;99846.03;3592632;40;10048;-59
2021/04/12 03:20:57;;;;;;;;;33.67;29.33;;;;;8.13;75.18;99857.63;3608544;39;9883;-60
2021/04/12 03:24:10;;;;;;;;;28.33;24.00;;;;;8.08;74.79;99859.69;3615230;39;9900;-59
2021/04/12 03:27:05;;;;;;;;;37.67;29.67;;;;;8.09;75.12;99850.72;3618220;39;9936;-59
2021/04/12 03:30:13;;;;;;;;;28.33;24.00;;;;;7.94;76.13;99838.09;3618106;39;10115;-59
2021/04/12 03:33:01;;;;;;;;;34.33;28.33;;;;;7.94;75.56;99839.91;3605504;39;9840;-59
2021/04/12 03:36:12;;;;;;;;;34.00;26.33;;;;;7.77;76.31;99838.06;3607919;39;9929;-59
2021/04/12 03:39:06;;;;;;;;;36.67;29.33;;;;;7.92;76.17;99826.59;3607256;39;9938;-59
2021/04/12 03:41:54;;;;;;;;;41.33;34.00;;;;;7.81;76.25;99834.28;3596091;39;9895;-59
2021/04/12 03:45:12;;;;;;;;;44.00;39.33;;;;;7.87;75.92;99839.31;3608520;39;10078;-59
2021/04/12 03:48:00;;;;;;;;;43.00;35.67;;;;;7.64;76.32;99833.28;3597901;39;10124;-59
2021/04/12 03:50:54;;;;;;;;;44.67;36.67;;;;;7.58;76.73;99830.91;3617241;39;10143;-59
2021/04/12 03:53:36;;;;;;;;;42.67;37.00;;;;;7.47;77.64;99835.88;3617707;39;10081;-59
2021/04/12 03:56:21;;;;;;;;;62.75;42.00;;;;;7.55;77.73;99836.38;3614416;39;9967;-59
2021/04/12 03:59:29;;;;;;;;;47.00;39.00;;;;;7.47;78.26;99849.22;3608738;39;9908;-59
2021/04/12 04:02:44;;;;;;;;;58.00;42.50;;;;;7.35;78.18;99844.47;3608859;39;10104;-59
2021/04/12 04:05:41;;;;;;;;;48.00;38.67;;;;;7.32;78.73;99845.47;3609071;39;9944;-59
2021/04/12 04:08:36;;;;;;;;;44.67;37.00;;;;;7.21;78.87;99839.72;3602055;39;9949;-59
2021/04/12 04:11:36;;;;;;;;;45.67;37.00;;;;;7.11;79.62;99833.97;3614895;39;10051;-59
2021/04/12 04:14:25;;;;;;;;;46.33;36.67;;;;;7.20;78.90;99841.53;3617011;39;10070;-58
2021/04/12 04:17:24;;;;;;;;;39.67;36.33;;;;;7.36;79.18;99856.88;3617983;39;9885;-59
2021/04/12 04:20:34;;;;;;;;;48.67;36.33;;;;;7.35;79.12;99863.16;3617977;39;9949;-58
2021/04/12 04:23:08;;;;;;;;;44.67;35.33;;;;;7.32;79.23;99857.94;3613636;39;9964;-59
2021/04/12 04:25:44;;;;;;;;;67.75;53.75;;;;;6.96;79.45;99850.66;3613213;39;10028;-59
2021/04/12 04:28:42;;;;;;;;;65.25;50.75;;;;;6.73;80.49;99848.97;3618492;39;9759;-60
2021/04/12 04:31:43;;;;;;;;;62.50;50.75;;;;;6.94;80.42;99857.84;3607742;39;9866;-59
2021/04/12 04:34:30;;;;;;;;;55.00;42.75;;;;;6.74;80.61;99859.59;3598572;39;10263;-59
2021/04/12 04:37:51;;;;;;;;;41.25;33.50;;;;;6.87;81.17;99859.03;3608227;39;10806;-59
2021/04/12 04:41:20;;;;;;;;;43.00;39.00;;;;;7.20;79.89;99870.06;3607927;39;10076;-59
2021/04/12 04:44:11;;;;;;;;;34.33;31.00;;;;;7.12;80.53;99866.84;3606117;39;10037;-59
2021/04/12 04:47:18;;;;;;;;;44.33;35.00;;;;;7.18;81.04;99864.75;3617213;39;10401;-59
2021/04/12 04:50:04;;;;;;;;;41.33;35.67;;;;;7.34;80.45;99867.59;3608530;39;10545;-59
2021/04/12 04:52:52;;;;;;;;;41.67;36.67;;;;;7.35;81.49;99873.84;3609253;39;10018;-59
2021/04/12 04:55:34;;;;;;;;;38.33;34.67;;;;;7.50;80.11;99878.47;3617800;39;10061;-59
2021/04/12 04:58:19;;;;;;;;;43.67;37.00;;;;;8.28;76.53;99865.88;3618386;39;9931;-60
2021/04/12 05:00:57;;;;;;;;;37.33;37.33;;;;;8.20;76.75;99868.06;3616682;39;9911;-59
2021/04/12 05:04:01;;;;;;;;;49.67;39.33;;;;;8.29;76.47;99865.81;3618529;39;9919;-59
2021/04/12 05:07:11;;;;;;;;;45.00;40.00;;;;;7.99;77.23;99859.28;3609613;39;9915;-59
2021/04/12 05:10:20;;;;;;;;;44.33;40.00;;;;;8.28;78.62;99868.53;3591416;40;10120;-59
2021/04/12 05:13:16;;;;;;;;;56.00;42.33;;;;;9.25;74.27;99872.53;3608005;39;9967;-59
2021/04/12 05:16:22;;;;;;;;;60.33;45.00;;;;;9.97;72.46;99875.78;3598753;39;9986;-59
2021/04/12 05:19:18;;;;;;;;;52.67;42.00;;;;;10.23;71.64;99880.53;3609996;39;10450;-59
2021/04/12 05:22:14;;;;;;;;;50.67;39.33;;;;;10.76;70.52;99891.81;3608547;39;9984;-59
2021/04/12 05:25:41;;;;;;;;;38.67;37.00;;;;;10.75;70.12;99888.28;3617679;39;9737;-59
2021/04/12 05:28:32;;;;;;;;;44.33;35.67;;;;;9.97;72.48;99898.09;3617599;39;9693;-59
2021/04/12 05:31:23;;;;;;;;;40.00;36.67;;;;;10.02;72.66;99897.84;3598377;39;9694;-59
2021/04/12 05:34:11;;;;;;;;;40.33;35.00;;;;;10.04;72.25;99893.25;3607271;39;10307;-59
2021/04/12 05:37:09;;;;;;;;;38.00;32.00;;;;;9.96;72.00;99887.47;3609172;39;9669;-59
2021/04/12 05:40:00;;;;;;;;;32.67;30.00;;;;;9.89;72.22;99898.50;3611522;39;9710;-59
2021/04/12 05:43:29;;;;;;;;;37.33;35.67;;;;;9.89;74.68;99898.50;3607295;39;9807;-60
2021/04/12 05:46:41;;;;;;;;;45.67;36.33;;;;;9.94;73.80;99900.09;3607448;39;9662;-59
2021/04/12 05:49:50;;;;;;;;;50.67;39.00;;;;;9.87;74.39;99897.75;3611568;39;9775;-59
2021/04/12 05:53:00;;;;;;;;;41.33;35.00;;;;;9.99;73.06;99887.28;3607766;39;9819;-59
2021/04/12 05:55:54;;;;;;;;;36.33;31.00;;;;;10.21;72.15;99893.16;3607586;39;9705;-60
2021/04/12 05:59:02;;;;;;;;;39.67;36.00;;;;;10.36;71.14;99885.22;3609210;39;9810;-59
2021/04/12 06:02:16;;;;;;;;;37.00;33.00;;;;;10.39;71.21;99891.28;3619366;39;9777;-59
2021/04/12 06:05:43;;;;;;;;;42.67;36.33;;;;;11.06;70.42;99881.09;3607555;39;9734;-59
2021/04/12 06:08:57;;;;;;;;;38.67;34.33;;;;;12.54;64.36;99883.38;3605514;39;9716;-59
2021/04/12 06:11:51;;;;;;;;;38.00;36.33;;;;;13.06;63.09;99881.66;3615754;39;10237;-60
2021/04/12 06:14:41;;;;;;;;;34.33;31.67;;;;;12.82;63.09;99886.91;3617463;39;10134;-59
2021/04/12 06:17:33;;;;;;;;;42.00;36.67;;;;;13.00;62.54;99885.66;3607874;39;10200;-59
2021/04/12 06:20:42;;;;;;;;;36.75;30.25;;;;;16.67;53.12;99887.63;3616177;39;10791;-59
2021/04/12 06:23:57;;;;;;;;;35.75;28.50;;;;;19.51;45.96;99898.44;3617272;39;13987;-59
2021/04/12 06:27:20;;;;;;;;;31.75;28.00;;;;;17.37;49.06;99890.75;3610806;39;14162;-59
2021/04/12 06:30:11;;;;;;;;;28.75;26.25;;;;;16.53;51.81;99902.28;3603689;39;14556;-59
2021/04/12 06:32:56;;;;;;;;;32.00;27.50;;;;;15.34;53.88;99907.34;3617166;39;14052;-59
2021/04/12 06:35:32;;;;;;;;;26.25;25.50;;;;;13.36;60.28;99889.50;3617694;39;14100;-59
2021/04/12 06:38:07;;;;;;;;;26.50;25.00;;;;;13.60;60.23;99886.91;3612000;39;13951;-60
2021/04/12 06:41:20;;;;;;;;;28.50;22.00;;;;;14.16;58.76;99891.91;3615802;39;14422;-59
2021/04/12 06:44:16;;;;;;;;;28.25;25.25;;;;;21.73;39.95;99895.47;3608263;39;13987;-59
2021/04/12 06:47:23;;;;;;;;;22.50;21.25;;;;;19.70;41.31;99888.53;3603856;39;13964;-59
2021/04/12 06:50:08;;;;;;;;;27.75;23.25;;;;;18.06;45.88;99887.41;3606994;39;14469;-59
2021/04/12 06:53:11;;;;;;;;;26.75;24.00;;;;;17.38;47.24;99878.88;3616760;39;14484;-59
2021/04/12 06:55:56;;;;;;;;;24.75;23.00;;;;;21.10;39.58;99874.66;3595837;40;14101;-60
2021/04/12 06:58:53;;;;;;;;;21.00;20.00;;;;;16.78;48.95;99871.34;3607165;39;13875;-60
2021/04/12 07:02:15;;;;;;;;;22.00;20.00;;;;;15.62;51.60;99872.72;3609051;39;14061;-59
2021/04/12 07:05:11;;;;;;;;;26.75;21.00;;;;;16.24;51.46;99869.47;3609129;39;13960;-59
2021/04/12 07:07:56;;;;;;;;;28.25;20.50;;;;;16.19;51.25;99874.41;3599425;39;13955;-59
2021/04/12 07:10:50;;;;;;;;;19.50;19.00;;;;;16.29;52.07;99888.94;3600789;39;13928;-60
2021/04/12 07:13:28;;;;;;;;;24.00;19.75;;;;;16.17;51.49;99876.41;3618492;39;13948;-59
2021/04/12 07:16:03;;;;;;;;;21.25;16.75;;;;;16.51;51.82;99879.03;3608745;39;13985;-59
2021/04/12 07:19:11;;;;;;;;;21.75;18.50;;;;;19.50;45.04;99882.25;3618567;39;13897;-59
2021/04/12 07:22:11;;;;;;;;;19.50;15.25;;;;;24.92;34.11;99884.53;3609945;39;13933;-59
2021/04/12 07:24:59;;;;;;;;;16.00;15.00;;;;;24.86;33.61;99890.75;3608466;39;13445;-59
2021/04/12 07:27:53;;;;;;;;;17.50;14.50;;;;;24.59;33.67;99895.69;3609891;39;11669;-60
2021/04/12 07:30:32;;;;;;;;;19.25;17.00;;;;;21.92;38.32;99887.91;3616877;39;10546;-57
2021/04/12 07:33:30;;;;;;;;;20.50;16.50;;;;;18.06;45.68;99891.00;3617953;39;11261;-58
2021/04/12 07:36:28;;;;;;;;;8.00;7.25;;;;;17.47;46.19;99887.09;3594532;39;12214;-60
2021/04/12 07:39:30;;;;;;;;;7.00;6.75;;;;;17.45;45.94;99888.22;3617882;39;12781;-60
2021/04/12 07:42:40;;;;;;;;;9.25;7.25;;;;;16.96;47.17;99877.06;3617848;39;13845;-58
2021/04/12 07:45:55;;;;;;;;;10.50;8.25;;;;;17.07;47.32;99878.84;3617210;39;13855;-59
2021/04/12 07:49:23;;;;;;;;;8.00;6.00;;;;;17.04;46.98;99879.97;3617587;39;14030;-60
2021/04/12 07:52:26;;;;;;;;;8.00;6.50;;;;;17.24;47.15;99880.94;3564818;40;13943;-60
2021/04/12 07:55:25;;;;;;;;;7.25;6.50;;;;;16.85;47.78;99872.53;3564285;40;13977;-61
2021/04/12 07:58:29;;;;;;;;;6.00;5.75;;;;;16.78;48.57;99868.63;3590911;39;13824;-59
2021/04/12 08:01:41;;;;;;;;;6.75;6.25;;;;;16.50;48.12;99869.19;3618321;39;14327;-60
2021/04/12 08:04:28;;;;;;;;;8.00;5.75;;;;;17.41;46.72;99867.78;3612213;39;13870;-59
2021/04/12 08:07:42;;;;;;;;;7.75;6.75;;;;;18.75;44.30;99873.03;3621023;39;13823;-59
2021/04/12 08:11:15;;;;;;;;;10.00;7.00;;;;;18.36;44.46;99872.94;3619829;39;13845;-59
2021/04/12 08:14:01;;;;;;;;;8.00;6.75;;;;;18.31;43.96;99875.19;3600780;39;13856;-59
2021/04/12 08:16:49;;;;;;;;;8.00;8.00;;;;;18.13;45.11;99873.13;3617668;39;13882;-60
2021/04/12 08:20:02;;;;;;;;;7.50;6.25;;;;;18.60;44.74;99867.09;3619176;39;13840;-59
2021/04/12 08:22:40;;;;;;;;;7.00;6.00;;;;;19.08;43.19;99864.41;3620465;39;14314;-59
2021/04/12 08:26:03;;;;;;;;;7.50;5.00;;;;;19.68;43.08;99866.03;3618630;39;13264;-58
2021/04/12 08:29:10;;;;;;;;;6.75;6.00;;;;;20.21;41.44;99857.19;3618652;39;12960;-59
2021/04/12 08:32:20;;;;;;;;;6.25;5.25;;;;;19.89;42.52;99863.09;3619713;39;13377;-60
2021/04/12 08:34:59;;;;;;;;;5.50;4.50;;;;;19.55;42.35;99857.28;3609964;39;12440;-60
2021/04/12 08:37:47;;;;;;;;;6.00;5.50;;;;;19.73;42.72;99858.28;3619602;39;12475;-61
2021/04/12 08:40:45;;;;;;;;;5.50;5.00;;;;;19.10;42.41;99855.25;3616206;39;12388;-60
2021/04/12 08:43:55;;;;;;;;;2.00;2.00;;;;;19.59;42.24;99855.97;3609856;39;12674;-60
2021/04/12 08:46:48;;;;;;;;;5.25;5.00;;;;;18.93;44.04;99849.53;3606912;39;12488;-60
2021/04/12 08:50:01;;;;;;;;;6.00;5.25;;;;;18.47;44.77;99848.31;3620572;39;12305;-60
2021/04/12 08:53:26;;;;;;;;;5.50;5.00;;;;;19.50;43.91;99852.28;3616717;39;12682;-59
2021/04/12 08:56:36;;;;;;;;;7.00;5.00;;;;;20.05;43.46;99854.25;3611049;39;13541;-59
2021/04/12 08:59:50;;;;;;;;;6.50;5.75;;;;;19.41;43.42;99854.03;3603199;39;12855;-60
2021/04/12 09:02:57;;;;;;;;;7.00;6.50;;;;;18.56;44.15;99857.47;3610601;39;12468;-60
2021/04/12 09:09:55;;;;;;;;;10.00;6.25;;;;;19.10;43.62;99844.34;3607755;39;13152;-60
2021/04/12 09:12:49;;;;;;;;;7.75;6.00;;;;;19.70;43.31;99853.13;3608196;39;13260;-59
2021/04/12 09:15:40;;;;;;;;;6.50;4.50;;;;;19.20;43.64;99847.94;3599988;39;13356;-58
2021/04/12 09:18:26;;;;;;;;;6.75;4.75;;;;;18.91;43.50;99839.78;3613135;39;12864;-60
2021/04/12 09:21:30;;;;;;;;;5.75;5.75;;;;;19.25;43.10;99842.91;3606637;39;12927;-59
2021/04/12 09:24:27;;;;;;;;;7.25;5.00;;;;;19.29;43.12;99842.44;3607105;39;13094;-59
2021/04/12 09:27:17;;;;;;;;;6.75;4.00;;;;;19.41;42.80;99845.03;3606632;39;13181;-59
2021/04/12 09:30:15;;;;;;;;;5.00;5.00;;;;;18.64;43.50;99838.59;3610866;39;12836;-60
2021/04/12 09:33:15;;;;;;;;;5.75;5.00;;;;;18.71;43.75;99852.50;3586652;40;13013;-59
2021/04/12 09:36:10;;;;;;;;;6.25;5.00;;;;;18.85;42.93;99843.94;3600743;39;13363;-60
2021/04/12 09:39:01;;;;;;;;;6.75;5.25;;;;;18.72;42.96;99837.88;3608435;39;13128;-60
2021/04/12 09:42:07;;;;;;;;;8.75;5.25;;;;;19.14;43.14;99838.50;3615338;39;13306;-60
2021/04/12 09:45:17;;;;;;;;;5.00;4.75;;;;;19.07;43.07;99835.47;3602383;39;13218;-60
2021/04/12 09:48:29;;;;;;;;;25.25;21.50;;;;;19.24;42.48;99830.28;3612714;39;13383;-60
2021/04/12 09:51:40;;;;;;;;;7.00;5.00;;;;;19.25;42.62;99834.75;3605893;39;13977;-59
2021/04/12 09:54:41;;;;;;;;;8.00;7.00;;;;;19.60;42.17;99817.72;3610920;39;13254;-59
2021/04/12 09:57:56;;;;;;;;;5.50;5.25;;;;;19.59;41.94;99812.41;3607140;39;13100;-60
2021/04/12 10:00:43;;;;;;;;;8.00;5.75;;;;;19.23;42.63;99823.13;3621525;39;12963;-60
2021/04/12 10:03:48;;;;;;;;;12.50;7.00;;;;;18.99;43.04;99821.72;3622109;39;12712;-60
2021/04/12 10:06:20;;;;;;;;;8.25;6.00;;;;;18.95;43.38;99814.84;3619829;39;12738;-60
2021/04/12 10:09:34;;;;;;;;;5.25;5.25;;;;;19.08;43.34;99814.56;3607777;39;12914;-60
2021/04/12 10:12:27;;;;;;;;;10.75;6.75;;;;;18.88;43.38;99808.28;3619020;39;12820;-60
2021/04/12 10:15:26;;;;;;;;;8.75;6.25;;;;;19.34;43.28;99805.75;3617291;39;13293;-60
2021/04/12 10:18:15;;;;;;;;;9.50;7.75;;;;;18.98;43.32;99797.38;3618621;39;13470;-59
2021/04/12 10:20:54;;;;;;;;;8.50;6.00;;;;;19.23;43.12;99795.91;3613665;39;13507;-59
2021/04/12 10:23:29;;;;;;;;;7.50;7.00;;;;;19.60;42.53;99789.63;3618787;39;12982;-60
2021/04/12 10:26:16;;;;;;;;;6.75;5.25;;;;;19.62;42.81;99795.78;3608104;39;12715;-60
2021/04/12 10:28:50;;;;;;;;;6.75;6.50;;;;;19.29;43.33;99792.59;3613978;39;12962;-59
2021/04/12 10:31:40;;;;;;;;;7.00;6.00;;;;;19.73;42.98;99795.63;3617497;39;12757;-60
2021/04/12 10:34:09;;;;;;;;;5.50;5.25;;;;;19.94;42.27;99785.31;3610371;39;12595;-60
2021/04/12 10:37:04;;;;;;;;;11.00;9.00;;;;;20.02;42.14;99775.53;3615999;39;12653;-61
2021/04/12 10:40:09;;;;;;;;;10.50;9.00;;;;;20.33;41.48;99771.44;3615289;39;12639;-60
2021/04/12 10:42:56;;;;;;;;;10.00;8.00;;;;;20.76;41.22;99772.53;3605562;39;12489;-60
2021/04/12 10:45:49;;;;;;;;;11.50;11.00;;;;;20.90;40.79;99764.78;3623393;39;12582;-60
2021/04/12 10:48:45;;;;;;;;;6.25;6.00;;;;;21.08;40.52;99764.75;3624560;39;12538;-60
2021/04/12 10:51:33;;;;;;;;;12.00;9.00;;;;;21.03;40.31;99759.75;3617237;39;11541;-60
2021/04/12 10:54:55;;;;;;;;;12.75;11.00;;;;;21.12;40.59;99757.97;3622223;39;12397;-60
2021/04/12 10:57:59;;;;;;;;;11.50;8.25;;;;;21.48;39.62;99742.31;3614692;39;12121;-60
2021/04/12 11:00:45;;;;;;;;;9.00;8.00;;;;;21.22;39.75;99754.09;3616853;39;11783;-59
2021/04/12 11:03:27;;;;;;;;;10.00;7.75;;;;;21.94;38.85;99745.56;3608686;39;11502;-60
2021/04/12 11:06:39;;;;;;;;;7.00;7.00;;;;;21.57;39.00;99745.94;3620688;39;11510;-59
2021/04/12 11:09:33;;;;;;;;;7.75;6.00;;;;;20.41;40.31;99753.44;3591482;39;11563;-60
2021/04/12 11:12:42;;;;;;;;;10.00;8.50;;;;;21.08;40.36;99735.56;3612730;39;11661;-60
2021/04/12 11:15:50;;;;;;;;;8.75;7.25;;;;;21.73;39.10;99734.22;3617071;39;11540;-60
2021/04/12 11:18:52;;;;;;;;;7.00;5.25;;;;;21.93;38.71;99735.63;3617265;39;11394;-60
2021/04/12 11:21:52;;;;;;;;;6.75;6.50;;;;;22.10;39.10;99731.94;3618426;39;11541;-59
2021/04/12 11:24:54;;;;;;;;;7.75;7.75;;;;;22.57;38.53;99723.13;3609502;39;11465;-59
2021/04/12 11:28:01;;;;;;;;;6.25;6.25;;;;;21.11;40.83;99721.59;3589966;39;11141;-59
2021/04/12 11:30:34;;;;;;;;;7.00;6.75;;;;;20.70;41.16;99721.31;3618300;39;11054;-60
2021/04/12 11:33:25;;;;;;;;;6.50;6.50;;;;;21.25;40.61;99712.81;3618956;39;11685;-59
2021/04/12 11:36:19;;;;;;;;;6.00;6.00;;;;;22.06;39.21;99710.56;3609305;39;11903;-60
2021/04/12 11:39:10;;;;;;;;;6.00;5.00;;;;;21.86;39.06;99701.81;3618653;39;11542;-59
2021/04/12 11:42:00;;;;;;;;;6.00;4.25;;;;;22.41;38.67;99705.84;3617907;39;11524;-61
2021/04/12 11:44:45;;;;;;;;;5.00;5.00;;;;;21.35;40.08;99703.63;3609231;39;10999;-59
2021/04/12 11:47:26;;;;;;;;;5.00;5.00;;;;;21.11;41.54;99694.28;3618376;39;11774;-59
2021/04/12 11:50:11;;;;;;;;;5.75;5.75;;;;;21.39;40.88;99705.91;3618612;39;11267;-60
2021/04/12 11:53:06;;;;;;;;;8.25;6.00;;;;;21.52;40.38;99700.00;3618201;39;11408;-59
2021/04/12 11:56:15;;;;;;;;;6.00;5.00;;;;;22.20;39.87;99699.00;3618129;39;12434;-60
2021/04/12 11:58:52;;;;;;;;;6.00;5.50;;;;;23.25;37.11;99703.72;3618341;39;11102;-60
2021/04/12 12:01:33;;;;;;;;;6.00;5.75;;;;;22.53;38.07;99688.06;3609993;39;11114;-60
2021/04/12 12:04:45;;;;;;;;;6.25;3.75;;;;;21.96;38.19;99686.13;3618541;39;10589;-59
2021/04/12 12:07:24;;;;;;;;;5.00;4.75;;;;;22.44;37.93;99689.09;3608720;39;10593;-59
2021/04/12 12:10:13;;;;;;;;;5.25;3.50;;;;;22.70;37.68;99683.44;3623122;39;10860;-59
2021/04/12 12:13:06;;;;;;;;;6.00;6.00;;;;;23.04;36.90;99680.50;3625390;39;10704;-59
2021/04/12 12:16:18;;;;;;;;;3.00;3.00;;;;;22.57;37.47;99687.56;3607170;39;11331;-60
2021/04/12 12:18:59;;;;;;;;;4.50;3.00;;;;;22.61;37.14;99688.06;3615983;39;10474;-59
2021/04/12 12:21:46;;;;;;;;;58.00;43.00;;;;;22.42;37.71;99674.75;3616997;39;10800;-60
2021/04/12 12:24:33;;;;;;;;;9.25;7.00;;;;;21.93;38.29;99683.69;3617255;39;14029;-59
2021/04/12 12:27:25;;;;;;;;;6.00;5.00;;;;;21.70;38.52;99681.59;3618332;39;11226;-59
2021/04/12 12:30:14;;;;;;;;;5.75;3.75;;;;;21.51;38.33;99675.56;3595435;39;11133;-60
2021/04/12 12:33:02;;;;;;;;;4.75;4.75;;;;;21.87;38.29;99684.38;3617642;39;10808;-59
2021/04/12 12:35:42;;;;;;;;;3.00;3.00;;;;;21.73;38.42;99679.56;3609045;39;11145;-59
2021/04/12 12:38:58;;;;;;;;;5.00;5.00;;;;;21.78;38.59;99674.47;3618098;39;10908;-60
2021/04/12 12:41:33;;;;;;;;;8.25;4.25;;;;;21.75;38.69;99672.03;3617572;39;11200;-60
2021/04/12 12:44:08;;;;;;;;;4.50;4.50;;;;;21.40;38.97;99665.78;3608599;39;11276;-59
2021/04/12 12:46:39;;;;;;;;;5.00;4.00;;;;;21.33;39.15;99668.31;3615776;39;12025;-59
2021/04/12 12:49:29;;;;;;;;;4.75;4.00;;;;;21.52;38.16;99667.19;3611913;39;11408;-60
2021/04/12 12:52:08;;;;;;;;;10.75;6.00;;;;;21.66;38.25;99661.09;3609127;39;11410;-59
2021/04/12 12:54:50;;;;;;;;;6.00;5.50;;;;;21.50;38.96;99661.03;3609169;39;11538;-60
2021/04/12 12:57:17;;;;;;;;;5.25;5.00;;;;;21.76;38.00;99658.22;3618220;39;11402;-59
2021/04/12 12:59:53;;;;;;;;;6.00;5.00;;;;;21.75;38.72;99656.53;3618368;39;11129;-59
2021/04/12 13:02:37;;;;;;;;;6.75;5.00;;;;;21.86;39.15;99655.34;3618194;39;10990;-59
2021/04/12 13:05:31;;;;;;;;;5.00;4.25;;;;;22.06;38.12;99651.25;3606638;39;11022;-59
2021/04/12 13:08:20;;;;;;;;;3.50;2.00;;;;;21.87;38.29;99646.09;3616618;39;11268;-60
2021/04/12 13:10:53;;;;;;;;;4.50;4.00;;;;;21.78;38.76;99647.97;3610553;39;11083;-59
2021/04/12 13:13:35;;;;;;;;;3.75;3.50;;;;;21.84;38.58;99643.72;3617743;39;11224;-60
2021/04/12 13:16:29;;;;;;;;;7.00;5.00;;;;;21.53;38.72;99640.72;3610175;39;11593;-60
2021/04/12 13:19:05;;;;;;;;;3.50;3.50;;;;;21.44;39.20;99642.59;3619637;39;11354;-61
2021/04/12 13:21:41;;;;;;;;;6.25;4.50;;;;;21.44;39.54;99634.41;3611354;39;11261;-60
2021/04/12 13:24:34;;;;;;;;;5.75;4.25;;;;;21.05;40.02;99634.88;3607454;39;11375;-59
2021/04/12 13:27:24;;;;;;;;;7.00;5.00;;;;;20.94;40.63;99640.63;3617332;39;11682;-60
2021/04/12 13:30:05;;;;;;;;;4.50;3.25;;;;;20.80;40.50;99637.47;3612474;39;12253;-60
2021/04/12 13:32:38;;;;;;;;;5.25;4.00;;;;;20.89;40.70;99632.06;3613678;39;11882;-61
2021/04/12 13:35:22;;;;;;;;;5.00;4.25;;;;;20.87;40.67;99626.75;3616652;39;11924;-60
2021/04/12 13:37:48;;;;;;;;;8.75;6.00;;;;;20.89;40.38;99637.53;3619071;39;11829;-60
2021/04/12 13:40:28;;;;;;;;;7.25;5.75;;;;;20.96;42.68;99639.44;3617890;39;11945;-60
2021/04/12 13:42:59;;;;;;;;;7.50;6.00;;;;;20.70;40.42;99639.47;3620210;39;11888;-60
2021/04/12 13:45:44;;;;;;;;;5.25;5.25;;;;;20.72;40.45;99637.44;3617521;39;12179;-61